• Join FlightAware (Why Join?)
  • Login
  • US Flag 
10:29PM EDT


 

Airport Tracker/Info


-or-


 

Live Flight TrackerFlight Track Log ✈ UCA3598 ✈ 19-Nov-2013 ✈ KIAD - KBGM

Flight Track Log - Related Links

Times and Time Zones

All times are in EST time to prevent confusion due to time zone crossing. See the UCA3598 flight status page for this flight to view local times or setup timezone preferences in your user account.

Time Position Orientation Groundspeed Altitude Reporting Facility
EST Latitude Longitude Course Direction KTS MPH feet Rate Location/Type
10:46PM 38.9500 -77.4833 North 115 132 1,800  Level Potomac TRACON
10:47PM 39.0000 -77.5000 345° North 159 183 3,100 1,320 Climbing Potomac TRACON
10:48PM 39.0689 -77.5219 346° North 179 206 5,400 1,380 Climbing Washington Center
10:49PM 39.1186 -77.5311 352° North 179 206 6,800 1,500 Climbing Washington Center
10:50PM 39.1619 -77.5672 327° Northwest 179 206 8,500 1,680 Climbing Washington Center
10:51PM 39.3225 -77.2973 North  Level Estimated
10:51PM 39.1944 -77.6164 310° West 174 200 10,200  Level Washington Center
10:52PM 39.2356 -77.6522 326° Northwest 174 200 11,500 1,320 Climbing Washington Center
10:53PM 39.2875 -77.6536 359° North 174 200 12,900 1,320 Climbing Washington Center
10:54PM 39.3403 -77.6283 20° North 182 209 14,200 1,260 Climbing Washington Center
10:55PM 39.3950 -77.5922 27° Northeast 187 215 15,500 840 Climbing Washington Center
10:56PM 39.4517 -77.5617 23° Northeast 203 234 16,000 240 Climbing Washington Center
10:57PM 39.5189 -77.5258 22° Northeast 221 254 16,000 240 Level Washington Center
11:00PM 39.6908 -77.4514 18° North 261 300 17,000 240 Climbing New York Center
11:01PM 39.7578 -77.4117 25° Northeast 273 314 17,000  Level New York Center
11:02PM 39.8375 -77.3653 24° Northeast 284 327 17,000  Level New York Center
11:03PM 39.9019 -77.3306 22° Northeast 284 327 17,000  Level New York Center
11:04PM 39.9794 -77.2864 24° Northeast 279 321 17,000  Level New York Center
11:05PM 40.0442 -77.2492 24° Northeast 279 321 17,000  Level New York Center
11:06PM 40.1214 -77.2047 24° Northeast 279 321 17,000  Level New York Center
11:07PM 40.1836 -77.1725 22° Northeast 274 315 17,000  Level New York Center
11:08PM 40.2614 -77.1250 25° Northeast 274 315 17,000  Level New York Center
11:09PM 40.3258 -77.0903 22° Northeast 274 315 17,000  Level New York Center
11:10PM 40.4053 -77.0456 23° Northeast 274 315 17,000  Level New York Center
11:11PM 40.4719 -77.0053 25° Northeast 274 315 17,000  Level New York Center
11:12PM 40.5431 -76.9653 23° Northeast 269 310 17,000  Level New York Center
11:13PM 40.6139 -76.9253 23° Northeast 269 310 17,000  Level New York Center
11:14PM 40.6806 -76.8847 25° Northeast 269 310 17,000  Level New York Center
11:15PM 40.7533 -76.8444 23° Northeast 264 304 17,000  Level New York Center
11:16PM 40.8200 -76.8067 23° Northeast 264 304 17,000  Level New York Center
11:17PM 40.8928 -76.7664 23° Northeast 264 304 17,000  Level New York Center
11:18PM 40.9531 -76.7303 24° Northeast 259 298 17,000  Level New York Center
11:19PM 41.0239 -76.6872 25° Northeast 264 304 17,000  Level New York Center
11:20PM 41.1033 -76.6417 23° Northeast 270 311 17,000  Level New York Center
11:21PM 41.1742 -76.5983 25° Northeast 270 311 17,000  Level New York Center
11:22PM 41.2367 -76.5594 25° Northeast 270 311 17,000  Level New York Center
11:23PM 41.3072 -76.5186 23° Northeast 270 311 17,000  Level New York Center
11:24PM 41.3844 -76.4725 24° Northeast 270 311 17,000  Level New York Center
11:25PM 41.4531 -76.4314 24° Northeast 265 305 17,000 -300 Level New York Center
11:26PM 41.5239 -76.3903 23° Northeast 265 305 16,500 -900 Descending New York Center
11:27PM 41.5922 -76.3544 21° North 274 315 15,300 -1,200 Descending New York Center
11:28PM 41.6672 -76.3078 25° Northeast 285 328 14,200 -1,260 Descending New York Center
11:29PM 41.7467 -76.2589 25° Northeast 285 328 12,800 -1,260 Descending New York Center
11:30PM 41.8150 -76.2172 24° Northeast 274 315 11,700 -1,200 Descending New York Center
11:31PM 41.8814 -76.1781 24° Northeast 261 300 10,500 -1,200 Descending New York Center
11:32PM 41.9414 -76.1411 25° Northeast 261 300 9,300 -1,200 Descending New York Center
11:33PM 42.0014 -76.1042 25° Northeast 250 288 8,200 -1,140 Descending New York Center
11:34PM 42.0633 -76.0672 24° Northeast 225 259 7,100 -1,080 Descending New York Center
11:35PM 42.0994 -76.0058 52° Northeast 205 236 6,100 -1,020 Descending New York Center
11:36PM 42.1158 -75.9178 76° East 205 236 5,100 -1,020 Descending New York Center
11:37PM 42.1339 -75.8381 73° East 218 251 4,100 -1,020 Descending New York Center
11:38PM 42.1775 -75.8386 359° North 129 148 3,100 -720 Descending New York Center
11:39PM 42.1747 -75.9028 267° West 81 93 2,700 -420 Descending New York Center
11:40PM 42.1728 -75.9472 267° West 99 114 2,300 -420 Descending New York Center